Time,TemperatureF,DewpointF,PressureIn,WindDirection,WindDirectionDegrees,WindSpeedMPH,WindSpeedGustMPH,Humidity,HourlyPrecipIn,Conditions,Clouds,dailyrainin,SoftwareType,DateUTC
2013-03-14 00:52:00,52.0,52.0,-100.00,WNW,300,-999.0,0.0,100,-99.99,,,0.00,,2013-03-14 07:52:00,
2013-03-14 01:02:00,52.0,52.0,-100.00,WNW,300,-999.0,0.0,100,-99.99,,,0.00,,2013-03-14 08:02:00,
2013-03-14 01:12:00,52.0,52.0,-100.00,WNW,300,-999.0,0.0,100,-99.99,,,0.00,,2013-03-14 08:12:00,
2013-03-14 01:21:00,51.0,51.0,-100.00,WSW,257,-999.0,0.0,100,-99.99,,,-99.99,,2013-03-14 08:21:00,
2013-03-14 01:32:00,51.0,51.0,-100.00,WSW,257,-999.0,0.0,100,-99.99,,,-99.99,,2013-03-14 08:32:00,
2013-03-14 01:41:00,51.0,51.0,-100.00,WSW,257,-999.0,0.0,100,-99.99,,,-99.99,,2013-03-14 08:41:00,
2013-03-14 01:51:00,52.0,52.0,-100.00,ENE,71,-999.0,0.0,100,-99.99,,,0.00,,2013-03-14 08:51:00,
2013-03-14 02:01:00,52.0,52.0,-100.00,ENE,71,-999.0,0.0,100,-99.99,,,0.00,,2013-03-14 09:01:00,
2013-03-14 02:12:00,52.0,52.0,-100.00,ENE,71,-999.0,0.0,100,-99.99,,,0.00,,2013-03-14 09:12:00,
2013-03-14 02:22:00,51.0,51.0,-100.00,East,84,-999.0,0.0,100,-99.99,,,-99.99,,2013-03-14 09:22:00,
2013-03-14 02:32:00,51.0,51.0,-100.00,East,84,-999.0,0.0,100,-99.99,,,-99.99,,2013-03-14 09:32:00,
2013-03-14 02:42:00,51.0,51.0,-100.00,East,84,-999.0,0.0,100,-99.99,,,-99.99,,2013-03-14 09:42:00,
2013-03-14 03:22:00,50.0,50.0,-100.00,SSW,205,-999.0,-999.0,100,-99.99,,,-99.99,,2013-03-14 10:22:00,
2013-03-14 03:32:00,50.0,50.0,-100.00,SSW,205,-999.0,-999.0,100,-99.99,,,-99.99,,2013-03-14 10:32:00,
2013-03-14 03:42:00,50.0,50.0,-100.00,SSW,205,-999.0,-999.0,100,-99.99,,,-99.99,,2013-03-14 10:42:00,
2013-03-14 03:51:00,50.0,50.0,-100.00,ENE,72,-999.0,0.0,100,-99.99,,,-99.99,,2013-03-14 10:51:00,
2013-03-14 03:52:00,50.0,50.0,-100.00,East,96,-999.0,0.0,100,-99.99,,,0.00,,2013-03-14 10:52:00,
2013-03-14 04:02:00,50.0,50.0,-100.00,East,96,-999.0,0.0,100,-99.99,,,0.00,,2013-03-14 11:02:00,
2013-03-14 04:12:00,50.0,50.0,-100.00,East,96,-999.0,0.0,100,-99.99,,,0.00,,2013-03-14 11:12:00,
2013-03-14 04:22:00,50.0,50.0,-100.00,ENE,72,-999.0,0.0,100,-99.99,,,-99.99,,2013-03-14 11:22:00,
2013-03-14 04:32:00,50.0,50.0,-100.00,ENE,72,-999.0,0.0,100,-99.99,,,-99.99,,2013-03-14 11:32:00,
2013-03-14 04:42:00,50.0,50.0,-100.00,ENE,72,-999.0,0.0,100,-99.99,,,-99.99,,2013-03-14 11:42:00,
2013-03-14 05:22:00,50.0,50.0,-100.00,NE,49,-999.0,0.0,100,-99.99,,,-99.99,,2013-03-14 12:22:00,
2013-03-14 05:33:00,50.0,50.0,-100.00,NE,49,-999.0,0.0,100,-99.99,,,-99.99,,2013-03-14 12:33:00,
2013-03-14 05:42:00,50.0,50.0,-100.00,NE,49,-999.0,0.0,100,-99.99,,,-99.99,,2013-03-14 12:42:00,
2013-03-14 05:51:00,50.0,50.0,0.00,NW,323,-999.0,0.0,100,-99.99,,,0.00,,2013-03-14 12:51:00,
2013-03-14 06:02:00,50.0,50.0,0.00,NW,323,-999.0,0.0,100,-99.99,,,0.00,,2013-03-14 13:02:00,
2013-03-14 06:12:00,50.0,50.0,0.00,NW,323,-999.0,0.0,100,-99.99,,,0.00,,2013-03-14 13:12:00,
2013-03-14 06:21:00,48.0,48.0,-100.00,NNW,333,-999.0,0.0,100,-99.99,,,-99.99,,2013-03-14 13:21:00,
2013-03-14 06:32:00,48.0,48.0,-100.00,NNW,333,-999.0,0.0,100,-99.99,,,-99.99,,2013-03-14 13:32:00,
2013-03-14 06:42:00,48.0,48.0,-100.00,NNW,333,-999.0,0.0,100,-99.99,,,-99.99,,2013-03-14 13:42:00,
2013-03-14 06:52:00,49.0,49.0,-100.00,ENE,78,-999.0,0.0,100,-99.99,,,0.00,,2013-03-14 13:52:00,
2013-03-14 07:02:00,49.0,49.0,-100.00,ENE,78,-999.0,0.0,100,-99.99,,,0.00,,2013-03-14 14:02:00,
2013-03-14 07:12:00,49.0,49.0,-100.00,ENE,78,-999.0,0.0,100,-99.99,,,0.00,,2013-03-14 14:12:00,
2013-03-14 07:22:00,49.0,49.0,-100.00,ENE,60,-999.0,0.0,100,-99.99,,,-99.99,,2013-03-14 14:22:00,
2013-03-14 07:32:00,49.0,49.0,-100.00,ENE,60,-999.0,0.0,100,-99.99,,,-99.99,,2013-03-14 14:32:00,
2013-03-14 07:42:00,49.0,49.0,-100.00,ENE,60,-999.0,0.0,100,-99.99,,,-99.99,,2013-03-14 14:42:00,
2013-03-14 07:51:00,49.0,49.0,-100.00,WNW,301,-999.0,0.0,100,-99.99,,,-99.99,,2013-03-14 14:51:00,
2013-03-14 07:52:00,48.0,48.0,-100.00,NNE,23,-999.0,0.0,100,-99.99,,,0.00,,2013-03-14 14:52:00,
2013-03-14 08:02:00,48.0,48.0,-100.00,NNE,23,-999.0,0.0,100,-99.99,,,0.00,,2013-03-14 15:02:00,
2013-03-14 08:12:00,48.0,48.0,-100.00,NNE,23,-999.0,0.0,100,-99.99,,,0.00,,2013-03-14 15:12:00,
2013-03-14 08:22:00,49.0,49.0,-100.00,WNW,301,-999.0,0.0,100,-99.99,,,-99.99,,2013-03-14 15:22:00,
2013-03-14 08:32:00,49.0,49.0,-100.00,WNW,301,-999.0,0.0,100,-99.99,,,-99.99,,2013-03-14 15:32:00,
2013-03-14 08:42:00,49.0,49.0,-100.00,WNW,301,-999.0,0.0,100,-99.99,,,-99.99,,2013-03-14 15:42:00,
2013-03-14 10:23:00,55.0,55.0,-100.00,SW,228,-999.0,0.0,100,-99.99,,,-99.99,,2013-03-14 17:23:00,
2013-03-14 10:32:00,55.0,55.0,-100.00,SW,228,-999.0,0.0,100,-99.99,,,-99.99,,2013-03-14 17:32:00,
2013-03-14 10:42:00,55.0,55.0,-100.00,SW,228,-999.0,0.0,100,-99.99,,,-99.99,,2013-03-14 17:42:00,
2013-03-14 10:53:00,58.0,-99.9,-100.00,SSW,203,-999.0,0.0,-999,-99.99,,,0.00,,2013-03-14 17:53:00,
2013-03-14 11:03:00,58.0,-99.9,-100.00,SSW,203,-999.0,0.0,-999,-99.99,,,0.00,,2013-03-14 18:03:00,
2013-03-14 11:13:00,58.0,-99.9,-100.00,SSW,203,-999.0,0.0,-999,-99.99,,,0.00,,2013-03-14 18:13:00,
2013-03-14 11:22:00,57.0,56.0,-100.00,West,266,-999.0,0.0,97,-99.99,,,-99.99,,2013-03-14 18:22:00,
2013-03-14 11:32:00,57.0,56.0,-100.00,West,266,-999.0,0.0,97,-99.99,,,-99.99,,2013-03-14 18:32:00,
2013-03-14 11:42:00,57.0,56.0,-100.00,West,266,-999.0,0.0,97,-99.99,,,-99.99,,2013-03-14 18:42:00,
2013-03-14 11:51:00,60.0,56.0,-100.00,West,264,-999.0,0.0,88,-99.99,,,-99.99,,2013-03-14 18:51:00,
2013-03-14 11:52:00,59.0,58.0,0.00,SSW,210,-999.0,0.0,97,-99.99,,,0.00,,2013-03-14 18:52:00,
2013-03-14 12:02:00,59.0,58.0,0.00,SSW,210,-999.0,0.0,97,-99.99,,,0.00,,2013-03-14 19:02:00,
2013-03-14 12:12:00,59.0,58.0,0.00,SSW,210,-999.0,0.0,97,-99.99,,,0.00,,2013-03-14 19:12:00,
2013-03-14 12:22:00,60.0,56.0,-100.00,West,264,-999.0,0.0,88,-99.99,,,-99.99,,2013-03-14 19:22:00,
2013-03-14 12:32:00,60.0,56.0,-100.00,West,264,-999.0,0.0,88,-99.99,,,-99.99,,2013-03-14 19:32:00,
2013-03-14 12:42:00,60.0,56.0,-100.00,West,264,-999.0,0.0,88,-99.99,,,-99.99,,2013-03-14 19:42:00,
2013-03-14 13:51:00,58.0,57.0,-100.00,NW,304,-999.0,0.0,97,-99.99,,,-99.99,,2013-03-14 20:51:00,
2013-03-14 13:52:00,61.0,58.0,-100.00,SW,229,-999.0,0.0,90,-99.99,,,-99.99,,2013-03-14 20:52:00,
2013-03-14 14:02:00,61.0,58.0,-100.00,SW,229,-999.0,0.0,90,-99.99,,,-99.99,,2013-03-14 21:02:00,
2013-03-14 14:12:00,61.0,58.0,-100.00,SW,229,-999.0,0.0,90,-99.99,,,-99.99,,2013-03-14 21:12:00,
2013-03-14 14:22:00,58.0,57.0,-100.00,NW,304,-999.0,0.0,97,-99.99,,,-99.99,,2013-03-14 21:22:00,
2013-03-14 14:32:00,58.0,57.0,-100.00,NW,304,-999.0,0.0,97,-99.99,,,-99.99,,2013-03-14 21:32:00,
2013-03-14 14:43:00,58.0,57.0,-100.00,NW,304,-999.0,0.0,97,-99.99,,,-99.99,,2013-03-14 21:43:00,
2013-03-14 18:52:00,57.0,57.0,-100.00,West,271,-999.0,0.0,100,-99.99,,,0.00,,2013-03-15 01:52:00,
2013-03-14 19:02:00,57.0,57.0,-100.00,West,271,-999.0,0.0,100,-99.99,,,0.00,,2013-03-15 02:02:00,
2013-03-14 19:12:00,57.0,57.0,-100.00,West,271,-999.0,0.0,100,-99.99,,,0.00,,2013-03-15 02:12:00,
2013-03-14 19:22:00,56.0,56.0,-100.00,West,278,-999.0,0.0,100,-99.99,,,-99.99,,2013-03-15 02:22:00,
2013-03-14 19:32:00,56.0,56.0,-100.00,West,278,-999.0,0.0,100,-99.99,,,-99.99,,2013-03-15 02:32:00,
2013-03-14 19:42:00,56.0,56.0,-100.00,West,278,-999.0,0.0,100,-99.99,,,-99.99,,2013-03-15 02:42:00,
2013-03-14 19:52:00,56.0,56.0,-100.00,West,278,-999.0,-999.0,100,-99.99,,,0.00,,2013-03-15 02:52:00,
2013-03-14 20:02:00,56.0,56.0,-100.00,West,278,-999.0,-999.0,100,-99.99,,,0.00,,2013-03-15 03:02:00,
2013-03-14 20:12:00,56.0,56.0,-100.00,West,278,-999.0,-999.0,100,-99.99,,,0.00,,2013-03-15 03:12:00,
2013-03-14 20:21:00,55.0,55.0,0.00,WNW,294,-999.0,0.0,100,-99.99,,,0.00,,2013-03-15 03:21:00,
2013-03-14 20:22:00,56.0,56.0,-100.00,West,276,-999.0,0.0,100,-99.99,,,-99.99,,2013-03-15 03:22:00,
2013-03-14 20:32:00,56.0,56.0,-100.00,West,276,-999.0,0.0,100,-99.99,,,-99.99,,2013-03-15 03:32:00,
2013-03-14 20:42:00,56.0,56.0,-100.00,West,276,-999.0,0.0,100,-99.99,,,-99.99,,2013-03-15 03:42:00,
2013-03-14 20:52:00,55.0,55.0,0.00,WNW,294,-999.0,0.0,100,-99.99,,,0.00,,2013-03-15 03:52:00,
2013-03-14 21:03:00,55.0,55.0,0.00,WNW,294,-999.0,0.0,100,-99.99,,,0.00,,2013-03-15 04:03:00,
2013-03-14 21:12:00,55.0,55.0,0.00,WNW,294,-999.0,0.0,100,-99.99,,,0.00,,2013-03-15 04:12:00,
2013-03-14 22:21:00,55.0,55.0,-100.00,WNW,291,-999.0,0.0,100,-99.99,,,-99.99,,2013-03-15 05:21:00,
2013-03-14 22:52:00,55.0,55.0,-100.00,WNW,291,-999.0,0.0,100,-99.99,,,-99.99,,2013-03-15 05:52:00,
2013-03-14 23:02:00,55.0,55.0,-100.00,WNW,291,-999.0,0.0,100,-99.99,,,-99.99,,2013-03-15 06:02:00,
2013-03-14 23:12:00,55.0,55.0,-100.00,WNW,291,-999.0,0.0,100,-99.99,,,-99.99,,2013-03-15 06:12:00,
2013-03-14 23:21:00,55.0,55.0,0.00,WNW,301,-999.0,-999.0,100,-99.99,,,-99.99,,2013-03-15 06:21:00,
2013-03-14 23:53:00,55.0,55.0,0.00,WNW,301,-999.0,-999.0,100,-99.99,,,-99.99,,2013-03-15 06:53:00,